Time;durP1;ratioP1;P1;durP2;ratioP2;P2;SDS_P1;SDS_P2;PMS_P1;PMS_P2;Temp;Humidity;BMP_temperature;BMP_pressure;BME280_temperature;BME280_humidity;BME280_pressure;Samples;Min_cycle;Max_cycle;Signal;HPM_P1;HPM_P2
2023/03/29 00:00:34;;;;;;;3.20;1.40;;;;;;;;;;5100058;28;20225;-64
2023/03/29 00:03:02;;;;;;;2.83;1.50;;;;;;;;;;5099844;28;20669;-64
2023/03/29 00:05:32;;;;;;;2.07;1.50;;;;;;;;;;5100021;28;20212;-64
2023/03/29 00:08:02;;;;;;;2.83;1.57;;;;;;;;;;5099418;28;20237;-64
2023/03/29 00:10:32;;;;;;;1.97;1.27;;;;;;;;;;5100111;28;20255;-64
2023/03/29 00:13:00;;;;;;;3.73;1.50;;;;;;;;;;5099644;28;20715;-64
2023/03/29 00:15:28;;;;;;;7.73;1.80;;;;;;;;;;5099879;28;20217;-64
2023/03/29 00:17:58;;;;;;;3.97;1.70;;;;;;;;;;5099848;28;20216;-63
2023/03/29 00:20:27;;;;;;;6.10;4.57;;;;;;;;;;5098690;28;20225;-64
2023/03/29 00:22:55;;;;;;;6.57;4.60;;;;;;;;;;5090456;28;20726;-64
2023/03/29 00:25:23;;;;;;;11.83;7.30;;;;;;;;;;5099763;28;20264;-64
2023/03/29 00:27:51;;;;;;;8.43;6.97;;;;;;;;;;5099809;28;20205;-64
2023/03/29 00:30:19;;;;;;;11.87;8.97;;;;;;;;;;5099280;28;20225;-64
2023/03/29 00:32:47;;;;;;;16.57;8.73;;;;;;;;;;5099480;28;20229;-64
2023/03/29 00:35:17;;;;;;;9.43;7.23;;;;;;;;;;5099286;28;20656;-64
2023/03/29 00:37:46;;;;;;;5.80;3.90;;;;;;;;;;5099396;28;20573;-64
2023/03/29 00:40:14;;;;;;;3.03;1.83;;;;;;;;;;5098859;28;20304;-63
2023/03/29 00:42:44;;;;;;;6.33;2.00;;;;;;;;;;5099541;28;20228;-64
2023/03/29 00:45:19;;;;;;;2.77;1.70;;;;;;;;;;5099364;28;20206;-64
2023/03/29 00:47:48;;;;;;;2.67;1.30;;;;;;;;;;5099056;28;20209;-64
2023/03/29 00:50:21;;;;;;;3.27;1.57;;;;;;;;;;5099198;28;20230;-64
2023/03/29 00:52:51;;;;;;;3.90;2.13;;;;;;;;;;5098098;28;20222;-64
2023/03/29 00:55:21;;;;;;;4.00;1.60;;;;;;;;;;5098822;28;20216;-64
2023/03/29 00:57:51;;;;;;;3.73;1.70;;;;;;;;;;5098800;28;20214;-64
2023/03/29 01:00:21;;;;;;;2.53;1.53;;;;;;;;;;5098876;28;20712;-64
2023/03/29 01:02:52;;;;;;;3.87;1.50;;;;;;;;;;5098747;28;20212;-64
2023/03/29 01:05:28;;;;;;;4.77;2.00;;;;;;;;;;5099132;28;20237;-64
2023/03/29 01:07:58;;;;;;;1.70;1.43;;;;;;;;;;5098336;28;20248;-64
2023/03/29 01:10:29;;;;;;;3.00;1.70;;;;;;;;;;5098735;28;20229;-64
2023/03/29 01:13:04;;;;;;;3.97;1.43;;;;;;;;;;5098888;28;20239;-64
2023/03/29 01:15:33;;;;;;;2.43;1.30;;;;;;;;;;5099362;28;20715;-64
2023/03/29 01:18:01;;;;;;;2.77;1.70;;;;;;;;;;5098708;28;20205;-64
2023/03/29 01:20:41;;;;;;;4.10;1.77;;;;;;;;;;5098775;28;20257;-63
2023/03/29 01:23:17;;;;;;;5.57;2.23;;;;;;;;;;5098535;28;20240;-64
2023/03/29 01:25:48;;;;;;;3.33;1.40;;;;;;;;;;5098656;28;20215;-64
2023/03/29 01:28:20;;;;;;;3.37;1.43;;;;;;;;;;5098539;28;20302;-64
2023/03/29 01:30:50;;;;;;;3.03;1.83;;;;;;;;;;5098104;28;20704;-63
2023/03/29 01:33:22;;;;;;;4.27;1.70;;;;;;;;;;5098570;28;20308;-64
2023/03/29 01:35:56;;;;;;;4.07;1.50;;;;;;;;;;5098498;28;20213;-64
2023/03/29 01:38:26;;;;;;;1.43;1.33;;;;;;;;;;5097962;28;20217;-64
2023/03/29 01:40:54;;;;;;;2.77;1.40;;;;;;;;;;5098125;28;20841;-64
2023/03/29 01:43:27;;;;;;;3.63;1.73;;;;;;;;;;5098398;28;20292;-64
2023/03/29 01:46:00;;;;;;;3.50;1.70;;;;;;;;;;5098062;28;20615;-64
2023/03/29 01:48:30;;;;;;;3.37;1.40;;;;;;;;;;5097974;28;20212;-64
2023/03/29 01:51:02;;;;;;;1.90;1.30;;;;;;;;;;5098046;28;20253;-63
2023/03/29 01:53:33;;;;;;;2.13;1.70;;;;;;;;;;5097923;28;20225;-64
2023/03/29 01:56:04;;;;;;;3.60;1.83;;;;;;;;;;5098447;28;20205;-64
2023/03/29 01:58:35;;;;;;;3.20;1.67;;;;;;;;;;5098118;28;20287;-64
2023/03/29 02:01:08;;;;;;;4.00;1.83;;;;;;;;;;5097607;28;20283;-64
2023/03/29 02:03:41;;;;;;;3.07;1.20;;;;;;;;;;5097992;28;20205;-64
2023/03/29 02:06:10;;;;;;;2.73;1.30;;;;;;;;;;5097822;28;20217;-64
2023/03/29 02:08:39;;;;;;;4.57;1.60;;;;;;;;;;5097461;28;20243;-64
2023/03/29 02:11:07;;;;;;;6.40;1.80;;;;;;;;;;5097932;28;20283;-64
2023/03/29 02:13:37;;;;;;;5.17;1.53;;;;;;;;;;5097669;28;20217;-64
2023/03/29 02:16:10;;;;;;;2.80;1.30;;;;;;;;;;5097872;28;20213;-64
2023/03/29 02:18:39;;;;;;;3.37;1.63;;;;;;;;;;5097775;28;20616;-64
2023/03/29 02:21:08;;;;;;;2.13;1.40;;;;;;;;;;5097852;28;20312;-64
2023/03/29 02:23:37;;;;;;;5.53;1.50;;;;;;;;;;5086995;28;20692;-64
2023/03/29 02:26:07;;;;;;;6.53;1.80;;;;;;;;;;5098020;28;20227;-63
2023/03/29 02:28:37;;;;;;;4.83;1.80;;;;;;;;;;5097910;28;20201;-64
2023/03/29 02:31:08;;;;;;;3.37;1.37;;;;;;;;;;5097513;28;20746;-64
2023/03/29 02:33:44;;;;;;;2.17;1.30;;;;;;;;;;5098019;28;20689;-64
2023/03/29 02:36:14;;;;;;;4.60;1.50;;;;;;;;;;5098020;28;20205;-64
2023/03/29 02:38:42;;;;;;;3.67;1.30;;;;;;;;;;5097537;28;20201;-63
2023/03/29 02:41:11;;;;;;;4.60;1.60;;;;;;;;;;5097364;28;20696;-64
2023/03/29 02:43:41;;;;;;;4.00;1.80;;;;;;;;;;5097535;28;20204;-63
2023/03/29 02:46:09;;;;;;;2.53;1.60;;;;;;;;;;5097617;28;20235;-64
2023/03/29 02:48:38;;;;;;;6.23;1.47;;;;;;;;;;5097692;28;20202;-64
2023/03/29 02:51:09;;;;;;;5.43;1.60;;;;;;;;;;5097639;28;20232;-64
2023/03/29 02:53:39;;;;;;;2.33;1.40;;;;;;;;;;5097143;28;20251;-64
2023/03/29 02:56:08;;;;;;;2.63;1.13;;;;;;;;;;5097367;28;20564;-64
2023/03/29 02:58:36;;;;;;;2.87;1.47;;;;;;;;;;5097673;28;20209;-64
2023/03/29 03:01:06;;;;;;;2.30;1.27;;;;;;;;;;5097139;28;20226;-64
2023/03/29 03:03:34;;;;;;;3.40;1.33;;;;;;;;;;5097369;28;20222;-64
2023/03/29 03:06:03;;;;;;;3.13;1.00;;;;;;;;;;5097614;28;20216;-64
2023/03/29 03:08:31;;;;;;;4.57;1.70;;;;;;;;;;5096884;28;20663;-64
2023/03/29 03:10:59;;;;;;;2.50;1.30;;;;;;;;;;5097394;28;20226;-64
2023/03/29 03:13:27;;;;;;;1.40;1.30;;;;;;;;;;5097412;28;20209;-64
2023/03/29 03:15:55;;;;;;;2.13;1.63;;;;;;;;;;5099400;28;20226;-64
2023/03/29 03:18:24;;;;;;;3.03;1.47;;;;;;;;;;5101220;28;20262;-64
2023/03/29 03:20:56;;;;;;;4.47;1.60;;;;;;;;;;5100948;28;20237;-64
2023/03/29 03:23:24;;;;;;;2.30;1.40;;;;;;;;;;5100616;28;20736;-64
2023/03/29 03:25:53;;;;;;;1.80;1.37;;;;;;;;;;5100703;28;20200;-64
2023/03/29 03:28:21;;;;;;;1.83;1.47;;;;;;;;;;5100997;28;20205;-64
2023/03/29 03:30:49;;;;;;;3.83;1.47;;;;;;;;;;5100659;28;20257;-64
2023/03/29 03:33:17;;;;;;;2.60;1.30;;;;;;;;;;5100804;28;20205;-64
2023/03/29 03:35:47;;;;;;;2.17;1.20;;;;;;;;;;5100643;28;20229;-64
2023/03/29 03:38:15;;;;;;;1.60;1.30;;;;;;;;;;5100479;28;20210;-64
2023/03/29 03:40:43;;;;;;;6.57;1.50;;;;;;;;;;5100566;28;20253;-64
2023/03/29 03:43:11;;;;;;;4.53;1.50;;;;;;;;;;5100367;28;20575;-64
2023/03/29 03:45:39;;;;;;;4.90;1.30;;;;;;;;;;5100354;28;20201;-63
2023/03/29 03:48:07;;;;;;;3.20;1.50;;;;;;;;;;5100237;28;20778;-64
2023/03/29 03:50:35;;;;;;;2.40;1.40;;;;;;;;;;5100217;28;20716;-64
2023/03/29 03:53:05;;;;;;;2.00;1.37;;;;;;;;;;5100147;28;20267;-64
2023/03/29 03:55:33;;;;;;;4.80;1.83;;;;;;;;;;5100267;28;20225;-64
2023/03/29 03:58:01;;;;;;;3.80;1.77;;;;;;;;;;5100242;28;20209;-64
2023/03/29 04:00:29;;;;;;;4.30;1.57;;;;;;;;;;5099952;28;20584;-64
2023/03/29 04:02:57;;;;;;;2.87;1.40;;;;;;;;;;5100111;28;20215;-64
2023/03/29 04:05:25;;;;;;;2.90;1.20;;;;;;;;;;5100260;28;20201;-64
2023/03/29 04:07:53;;;;;;;3.37;1.47;;;;;;;;;;5099596;28;20238;-64
2023/03/29 04:10:22;;;;;;;10.07;1.60;;;;;;;;;;5100034;28;20226;-64
2023/03/29 04:12:50;;;;;;;2.23;1.20;;;;;;;;;;5099870;28;20206;-64
2023/03/29 04:15:19;;;;;;;4.93;1.70;;;;;;;;;;5099906;28;20237;-63
2023/03/29 04:17:47;;;;;;;2.57;1.33;;;;;;;;;;5099809;28;20202;-64
2023/03/29 04:20:15;;;;;;;2.03;1.43;;;;;;;;;;5099903;28;20308;-63
2023/03/29 04:22:43;;;;;;;3.47;1.57;;;;;;;;;;5099438;28;20223;-64
2023/03/29 04:25:11;;;;;;;1.27;1.17;;;;;;;;;;5089127;28;20229;-64
2023/03/29 04:27:40;;;;;;;3.17;1.47;;;;;;;;;;5099578;28;20209;-64
2023/03/29 04:30:09;;;;;;;2.67;1.10;;;;;;;;;;5099620;28;20227;-64
2023/03/29 04:32:37;;;;;;;3.67;1.50;;;;;;;;;;5099313;28;20208;-64
2023/03/29 04:35:06;;;;;;;3.07;1.57;;;;;;;;;;5099892;28;20221;-64
2023/03/29 04:37:34;;;;;;;2.30;1.27;;;;;;;;;;5100028;28;20205;-65
2023/03/29 04:40:07;;;;;;;3.47;1.20;;;;;;;;;;5099049;28;20278;-65
2023/03/29 04:42:36;;;;;;;2.63;1.43;;;;;;;;;;5099405;28;20212;-65
2023/03/29 04:45:06;;;;;;;4.13;1.30;;;;;;;;;;5099508;28;20201;-65
2023/03/29 04:47:35;;;;;;;3.43;1.30;;;;;;;;;;5099244;28;20208;-65
2023/03/29 04:50:03;;;;;;;2.63;1.30;;;;;;;;;;5099039;28;20232;-64
2023/03/29 04:52:32;;;;;;;3.67;1.43;;;;;;;;;;5099192;28;20239;-65
2023/03/29 04:55:00;;;;;;;2.70;1.47;;;;;;;;;;5098887;28;20297;-65
2023/03/29 04:57:28;;;;;;;2.30;1.13;;;;;;;;;;5098878;28;20210;-65
2023/03/29 04:59:56;;;;;;;4.27;1.43;;;;;;;;;;5099097;28;20226;-65
2023/03/29 05:02:26;;;;;;;5.97;1.70;;;;;;;;;;5098938;28;20284;-66
2023/03/29 05:04:54;;;;;;;2.50;1.50;;;;;;;;;;5099114;28;20241;-65
2023/03/29 05:07:22;;;;;;;3.70;1.70;;;;;;;;;;5095880;28;20233;-65
2023/03/29 05:09:49;;;;;;;3.00;1.70;;;;;;;;;;5089953;28;20277;-64
2023/03/29 05:12:17;;;;;;;2.20;1.57;;;;;;;;;;5098265;28;20217;-64
2023/03/29 05:14:45;;;;;;;5.57;1.27;;;;;;;;;;5098041;28;20741;-65
2023/03/29 05:17:13;;;;;;;5.73;1.60;;;;;;;;;;5098320;28;20216;-64
2023/03/29 05:19:43;;;;;;;3.67;1.40;;;;;;;;;;5098238;28;20229;-64
2023/03/29 05:22:11;;;;;;;2.23;1.40;;;;;;;;;;5098372;28;20208;-65
2023/03/29 05:24:39;;;;;;;1.77;1.63;;;;;;;;;;5098029;28;20212;-64
2023/03/29 05:27:07;;;;;;;5.37;1.40;;;;;;;;;;5098325;28;20277;-65
2023/03/29 05:29:35;;;;;;;7.87;2.00;;;;;;;;;;5098128;28;20232;-65
2023/03/29 05:32:03;;;;;;;1.47;1.20;;;;;;;;;;5097891;28;20354;-65
2023/03/29 05:34:31;;;;;;;3.10;1.57;;;;;;;;;;5098070;28;20208;-65
2023/03/29 05:37:01;;;;;;;7.57;1.60;;;;;;;;;;5098199;28;20256;-64
2023/03/29 05:39:30;;;;;;;2.20;1.30;;;;;;;;;;5097318;28;20228;-64
2023/03/29 05:41:58;;;;;;;4.47;1.67;;;;;;;;;;5097847;28;20209;-65
2023/03/29 05:44:26;;;;;;;3.93;1.60;;;;;;;;;;5097911;28;20217;-64
2023/03/29 05:46:56;;;;;;;3.60;1.67;;;;;;;;;;5097815;28;20575;-64
2023/03/29 05:49:24;;;;;;;3.83;1.73;;;;;;;;;;5097493;28;20229;-64
2023/03/29 05:51:55;;;;;;;4.17;1.77;;;;;;;;;;5097829;28;20201;-65
2023/03/29 05:54:26;;;;;;;7.33;1.87;;;;;;;;;;5097480;28;20209;-64
2023/03/29 05:56:53;;;;;;;7.03;2.30;;;;;;;;;;5097918;28;20235;-64
2023/03/29 05:59:23;;;;;;;9.57;1.87;;;;;;;;;;5097586;28;20225;-65
2023/03/29 06:01:51;;;;;;;3.73;1.20;;;;;;;;;;5095896;28;20296;-65
2023/03/29 06:04:19;;;;;;;5.23;1.63;;;;;;;;;;5097526;28;20209;-65
2023/03/29 06:06:48;;;;;;;1.87;1.50;;;;;;;;;;5097458;28;20226;-64
2023/03/29 06:09:16;;;;;;;4.43;1.43;;;;;;;;;;5097396;28;20306;-65
2023/03/29 06:11:46;;;;;;;4.67;1.43;;;;;;;;;;5097675;28;20212;-64
2023/03/29 06:14:14;;;;;;;4.10;1.60;;;;;;;;;;5097529;28;20202;-64
2023/03/29 06:16:43;;;;;;;3.13;1.57;;;;;;;;;;5097210;28;20255;-65
2023/03/29 06:19:11;;;;;;;3.10;1.30;;;;;;;;;;5097208;28;20262;-64
2023/03/29 06:21:40;;;;;;;3.63;1.53;;;;;;;;;;5097484;28;20256;-65
2023/03/29 06:24:08;;;;;;;1.93;1.23;;;;;;;;;;5097205;28;20288;-64
2023/03/29 06:26:36;;;;;;;2.00;1.40;;;;;;;;;;5097341;28;20209;-65
2023/03/29 06:29:05;;;;;;;4.20;1.67;;;;;;;;;;5097194;28;20258;-64
2023/03/29 06:31:34;;;;;;;2.70;1.63;;;;;;;;;;5097470;28;20284;-65
2023/03/29 06:34:03;;;;;;;1.93;1.40;;;;;;;;;;5097428;28;20205;-64
2023/03/29 06:36:33;;;;;;;4.07;2.13;;;;;;;;;;5096485;28;20278;-64
2023/03/29 06:39:02;;;;;;;3.60;1.30;;;;;;;;;;5097066;28;20205;-63
2023/03/29 06:41:30;;;;;;;3.93;1.40;;;;;;;;;;5097503;28;20233;-64
2023/03/29 06:43:58;;;;;;;6.50;1.87;;;;;;;;;;5097649;28;20209;-63
2023/03/29 06:46:28;;;;;;;2.03;1.47;;;;;;;;;;5097390;28;20568;-63
2023/03/29 06:48:56;;;;;;;2.63;1.83;;;;;;;;;;5086027;28;20233;-64
2023/03/29 06:51:24;;;;;;;2.57;1.50;;;;;;;;;;5099936;28;20229;-64
2023/03/29 06:53:52;;;;;;;6.50;2.10;;;;;;;;;;5100500;28;20237;-64
2023/03/29 06:56:21;;;;;;;4.23;1.60;;;;;;;;;;5101170;28;20232;-63
2023/03/29 06:58:49;;;;;;;4.67;1.23;;;;;;;;;;5101122;28;20254;-63
2023/03/29 07:01:17;;;;;;;3.80;1.40;;;;;;;;;;5100715;28;20567;-63
2023/03/29 07:03:48;;;;;;;5.33;2.40;;;;;;;;;;5100935;28;20237;-64
2023/03/29 07:06:19;;;;;;;4.47;1.50;;;;;;;;;;5100791;28;20204;-63
2023/03/29 07:08:50;;;;;;;4.50;1.50;;;;;;;;;;5100259;28;20233;-64
2023/03/29 07:11:19;;;;;;;3.17;1.40;;;;;;;;;;5100634;28;20304;-63
2023/03/29 07:13:47;;;;;;;3.93;1.87;;;;;;;;;;5100777;28;20202;-63
2023/03/29 07:16:17;;;;;;;4.37;1.40;;;;;;;;;;5100763;28;20225;-63
2023/03/29 07:18:47;;;;;;;1.90;1.70;;;;;;;;;;5100564;28;20230;-63
2023/03/29 07:21:16;;;;;;;5.43;2.00;;;;;;;;;;5100319;28;20253;-63
2023/03/29 07:23:44;;;;;;;6.47;1.40;;;;;;;;;;5100288;28;20202;-64
2023/03/29 07:26:12;;;;;;;4.97;1.83;;;;;;;;;;5100643;28;20204;-63
2023/03/29 07:28:40;;;;;;;2.80;1.70;;;;;;;;;;5100642;28;20205;-63
2023/03/29 07:31:09;;;;;;;3.17;1.67;;;;;;;;;;5100001;28;20225;-63
2023/03/29 07:33:38;;;;;;;8.87;2.13;;;;;;;;;;5100358;28;20293;-63
2023/03/29 07:36:08;;;;;;;1.43;1.33;;;;;;;;;;5096635;28;20206;-63
2023/03/29 07:38:36;;;;;;;4.10;2.20;;;;;;;;;;5100299;28;20213;-63
2023/03/29 07:41:05;;;;;;;7.03;2.27;;;;;;;;;;5099972;28;20270;-63
2023/03/29 07:43:33;;;;;;;36.00;8.67;;;;;;;;;;5099015;28;20193;-63
2023/03/29 07:46:01;;;;;;;70.30;15.80;;;;;;;;;;5099744;28;20237;-63
2023/03/29 07:48:29;;;;;;;5.80;2.80;;;;;;;;;;5099740;28;20202;-63
2023/03/29 07:50:58;;;;;;;5.43;1.80;;;;;;;;;;5099682;28;20217;-63
2023/03/29 07:53:28;;;;;;;2.13;1.43;;;;;;;;;;5099394;28;20289;-63
2023/03/29 07:55:56;;;;;;;3.37;2.07;;;;;;;;;;5099899;28;20198;-63
2023/03/29 07:58:24;;;;;;;2.67;1.87;;;;;;;;;;5099815;28;20221;-63
2023/03/29 08:00:52;;;;;;;2.13;1.70;;;;;;;;;;5098641;28;20213;-63
2023/03/29 08:03:20;;;;;;;6.17;1.90;;;;;;;;;;5099430;28;20205;-63
2023/03/29 08:05:48;;;;;;;6.70;2.43;;;;;;;;;;5099675;28;20557;-63
2023/03/29 08:08:16;;;;;;;2.60;1.60;;;;;;;;;;5099291;28;20653;-63
2023/03/29 08:10:46;;;;;;;6.23;1.90;;;;;;;;;;5099476;28;20704;-63
2023/03/29 08:13:14;;;;;;;4.93;1.80;;;;;;;;;;5099263;28;20665;-62
2023/03/29 08:15:45;;;;;;;3.93;1.77;;;;;;;;;;5099768;28;20205;-63
2023/03/29 08:18:13;;;;;;;7.30;2.07;;;;;;;;;;5099240;28;20259;-63
2023/03/29 08:20:41;;;;;;;4.17;1.80;;;;;;;;;;5099520;28;20233;-63
2023/03/29 08:23:09;;;;;;;5.83;2.13;;;;;;;;;;5098969;28;20206;-63
2023/03/29 08:25:37;;;;;;;3.63;1.70;;;;;;;;;;5099389;28;20231;-64
2023/03/29 08:28:06;;;;;;;3.93;2.13;;;;;;;;;;5099518;28;20205;-64
2023/03/29 08:30:35;;;;;;;3.03;1.40;;;;;;;;;;5099146;28;20784;-64
2023/03/29 08:33:03;;;;;;;4.57;1.80;;;;;;;;;;5099178;28;20201;-63
2023/03/29 08:35:31;;;;;;;5.17;1.60;;;;;;;;;;5099141;28;20209;-63
2023/03/29 08:37:59;;;;;;;6.87;1.70;;;;;;;;;;5099003;28;20222;-63
2023/03/29 08:40:28;;;;;;;5.23;1.90;;;;;;;;;;5092851;28;20221;-62
2023/03/29 08:43:16;;;;;;;2.77;1.80;;;;;;;;;;5098864;28;20210;-65
2023/03/29 08:45:49;;;;;;;9.40;1.80;;;;;;;;;;5098284;28;20202;-64
2023/03/29 08:48:20;;;;;;;7.07;2.13;;;;;;;;;;5097859;28;20212;-64
2023/03/29 08:50:51;;;;;;;6.53;1.83;;;;;;;;;;5097851;28;20213;-65
2023/03/29 08:53:22;;;;;;;4.33;1.80;;;;;;;;;;5095479;28;20563;-66
2023/03/29 08:55:52;;;;;;;2.30;1.70;;;;;;;;;;5098657;28;20212;-65
2023/03/29 08:58:24;;;;;;;4.10;1.70;;;;;;;;;;5098518;28;20232;-65
2023/03/29 09:00:54;;;;;;;2.37;1.70;;;;;;;;;;5098368;28;20240;-65
2023/03/29 09:03:23;;;;;;;2.53;1.47;;;;;;;;;;5098616;28;20219;-66
2023/03/29 09:05:53;;;;;;;1.23;1.13;;;;;;;;;;5098403;28;20726;-64
2023/03/29 09:08:21;;;;;;;4.73;1.50;;;;;;;;;;5098055;28;20699;-66
2023/03/29 09:10:59;;;;;;;4.17;2.07;;;;;;;;;;5098553;28;20225;-66
2023/03/29 09:13:34;;;;;;;3.13;1.90;;;;;;;;;;5097404;28;20197;-65
2023/03/29 09:16:08;;;;;;;3.03;1.70;;;;;;;;;;5095444;28;20212;-64
2023/03/29 09:18:40;;;;;;;5.20;1.90;;;;;;;;;;5098007;28;20217;-64
2023/03/29 09:21:13;;;;;;;2.73;1.93;;;;;;;;;;5095782;28;20684;-64
2023/03/29 09:23:50;;;;;;;8.33;2.70;;;;;;;;;;5097541;28;20209;-64
2023/03/29 09:26:24;;;;;;;3.80;1.87;;;;;;;;;;5097640;28;20204;-63
2023/03/29 09:28:59;;;;;;;7.53;2.17;;;;;;;;;;5098074;28;20572;-63
2023/03/29 09:31:29;;;;;;;4.27;1.83;;;;;;;;;;5097950;28;20209;-63
2023/03/29 09:33:58;;;;;;;8.60;2.00;;;;;;;;;;5097969;28;20264;-62
2023/03/29 09:36:33;;;;;;;4.77;1.43;;;;;;;;;;5098146;28;20288;-62
2023/03/29 09:39:02;;;;;;;4.00;1.43;;;;;;;;;;5097225;28;20625;-64
2023/03/29 09:41:33;;;;;;;2.80;1.60;;;;;;;;;;5093672;28;20198;-63
2023/03/29 09:44:05;;;;;;;3.60;1.90;;;;;;;;;;5099426;28;20197;-63
2023/03/29 09:46:38;;;;;;;2.43;1.50;;;;;;;;;;5097290;28;20280;-63
2023/03/29 09:49:09;;;;;;;3.43;1.77;;;;;;;;;;5097702;28;20194;-63
2023/03/29 09:51:37;;;;;;;2.63;1.53;;;;;;;;;;5097675;28;20232;-63
2023/03/29 09:54:05;;;;;;;6.33;2.27;;;;;;;;;;5097304;28;20591;-63
2023/03/29 09:56:33;;;;;;;7.67;1.53;;;;;;;;;;5097559;28;20209;-63
2023/03/29 09:59:03;;;;;;;4.70;1.70;;;;;;;;;;5097472;28;20221;-63
2023/03/29 10:01:37;;;;;;;2.77;1.40;;;;;;;;;;5097423;28;20276;-64
2023/03/29 10:04:06;;;;;;;2.40;1.43;;;;;;;;;;5097896;28;20222;-64
2023/03/29 10:06:35;;;;;;;3.13;1.80;;;;;;;;;;5097389;28;20235;-63
2023/03/29 10:09:04;;;;;;;4.57;1.80;;;;;;;;;;5096437;28;20233;-62
2023/03/29 10:11:34;;;;;;;3.53;1.50;;;;;;;;;;5096338;28;20673;-63
2023/03/29 10:14:05;;;;;;;2.23;1.60;;;;;;;;;;5097415;28;20242;-63
2023/03/29 10:16:34;;;;;;;3.17;1.47;;;;;;;;;;5097191;28;20688;-62
2023/03/29 10:19:15;;;;;;;4.90;1.90;;;;;;;;;;5097106;28;20233;-64
2023/03/29 10:21:43;;;;;;;4.43;1.53;;;;;;;;;;5094680;28;20211;-63
2023/03/29 10:24:11;;;;;;;2.10;1.40;;;;;;;;;;5097729;28;20197;-63
2023/03/29 10:26:40;;;;;;;2.97;1.80;;;;;;;;;;5100956;28;20194;-64
2023/03/29 10:29:11;;;;;;;5.87;1.90;;;;;;;;;;5100969;28;20228;-63
2023/03/29 10:31:41;;;;;;;4.53;2.10;;;;;;;;;;5101805;28;20291;-63
2023/03/29 10:34:12;;;;;;;6.03;1.53;;;;;;;;;;5101820;28;20217;-62
2023/03/29 10:36:41;;;;;;;4.93;1.63;;;;;;;;;;5101918;28;20205;-63
2023/03/29 10:39:10;;;;;;;4.37;2.30;;;;;;;;;;5100774;28;20307;-66
2023/03/29 10:41:39;;;;;;;4.80;1.70;;;;;;;;;;5101415;28;20209;-65
2023/03/29 10:44:07;;;;;;;6.00;1.80;;;;;;;;;;5101262;28;20673;-65
2023/03/29 10:46:42;;;;;;;4.83;2.47;;;;;;;;;;5098636;28;20232;-65
2023/03/29 10:49:17;;;;;;;6.07;1.37;;;;;;;;;;5100913;28;20204;-66
2023/03/29 10:51:46;;;;;;;2.40;1.60;;;;;;;;;;5097696;28;20618;-64
2023/03/29 10:54:16;;;;;;;3.93;1.60;;;;;;;;;;5100863;28;20722;-65
2023/03/29 10:56:47;;;;;;;3.77;1.50;;;;;;;;;;5101211;28;20205;-65
2023/03/29 10:59:27;;;;;;;2.07;1.60;;;;;;;;;;5100817;28;20229;-65
2023/03/29 11:02:14;;;;;;;4.83;1.27;;;;;;;;;;5100823;28;20739;-65
2023/03/29 11:04:45;;;;;;;4.50;1.50;;;;;;;;;;5100999;28;20217;-65
2023/03/29 11:07:22;;;;;;;4.00;1.60;;;;;;;;;;5100473;28;20275;-66
2023/03/29 11:09:52;;;;;;;2.60;1.37;;;;;;;;;;5100762;28;20225;-65
2023/03/29 11:12:25;;;;;;;3.97;1.33;;;;;;;;;;5100991;28;20215;-66
2023/03/29 11:15:00;;;;;;;3.17;1.90;;;;;;;;;;5096301;28;20294;-66
2023/03/29 11:17:35;;;;;;;6.23;1.90;;;;;;;;;;5095355;28;20246;-66
2023/03/29 11:20:19;;;;;;;5.40;1.60;;;;;;;;;;5101428;28;20223;-67
2023/03/29 11:22:52;;;;;;;4.53;1.40;;;;;;;;;;5098924;28;20212;-67
2023/03/29 11:25:24;;;;;;;4.10;1.80;;;;;;;;;;5100461;28;20229;-67
2023/03/29 11:27:58;;;;;;;2.70;1.60;;;;;;;;;;5100627;28;20209;-67
2023/03/29 11:30:30;;;;;;;3.40;1.83;;;;;;;;;;5100396;28;20229;-67
2023/03/29 11:33:04;;;;;;;3.57;1.73;;;;;;;;;;5099960;28;20205;-67
2023/03/29 11:35:40;;;;;;;7.73;2.17;;;;;;;;;;5099626;28;20229;-66
2023/03/29 11:38:13;;;;;;;4.33;1.67;;;;;;;;;;5099794;28;20710;-66
2023/03/29 11:40:46;;;;;;;4.50;1.43;;;;;;;;;;5100130;28;20316;-67
2023/03/29 11:43:17;;;;;;;4.20;1.60;;;;;;;;;;5099902;28;20262;-67
2023/03/29 11:45:49;;;;;;;2.37;1.40;;;;;;;;;;5100138;28;20213;-66
2023/03/29 11:48:21;;;;;;;3.37;1.30;;;;;;;;;;5099992;28;20202;-66
2023/03/29 11:50:53;;;;;;;3.23;1.50;;;;;;;;;;5100293;28;20272;-67
2023/03/29 11:53:23;;;;;;;4.57;1.70;;;;;;;;;;5099678;28;20229;-66
2023/03/29 11:55:51;;;;;;;3.70;1.63;;;;;;;;;;5100176;28;20266;-66
2023/03/29 11:58:22;;;;;;;12.80;6.47;;;;;;;;;;5099566;28;20664;-66
2023/03/29 12:00:54;;;;;;;3.07;1.50;;;;;;;;;;5099700;28;20255;-66
2023/03/29 12:03:28;;;;;;;3.70;1.63;;;;;;;;;;5099969;28;20202;-66
2023/03/29 12:06:03;;;;;;;4.00;1.73;;;;;;;;;;5099983;28;20209;-66
2023/03/29 12:08:33;;;;;;;2.43;1.30;;;;;;;;;;5099380;28;20236;-66
2023/03/29 12:11:04;;;;;;;5.50;1.57;;;;;;;;;;5099752;28;20260;-66
2023/03/29 12:13:34;;;;;;;3.73;1.77;;;;;;;;;;5099535;28;20216;-66
2023/03/29 12:16:05;;;;;;;2.80;1.40;;;;;;;;;;5099239;28;20256;-66
2023/03/29 12:18:36;;;;;;;2.80;1.30;;;;;;;;;;5099379;28;20201;-66
2023/03/29 12:21:09;;;;;;;2.23;1.37;;;;;;;;;;5099218;28;20226;-66
2023/03/29 12:23:38;;;;;;;3.33;1.40;;;;;;;;;;5099267;28;20202;-66
2023/03/29 12:26:12;;;;;;;2.83;1.60;;;;;;;;;;5099478;28;20259;-66
2023/03/29 12:28:58;;;;;;;2.60;1.40;;;;;;;;;;5099253;28;20203;-66
2023/03/29 12:31:31;;;;;;;1.57;1.30;;;;;;;;;;5098974;28;20220;-66
2023/03/29 12:34:15;;;;;;;2.70;1.50;;;;;;;;;;5099125;28;20660;-66
2023/03/29 12:36:54;;;;;;;1.40;1.10;;;;;;;;;;5099392;28;20219;-66
2023/03/29 12:39:22;;;;;;;1.83;1.00;;;;;;;;;;5098613;28;20226;-66
2023/03/29 12:41:52;;;;;;;7.27;1.80;;;;;;;;;;5099021;28;20613;-66
2023/03/29 12:44:22;;;;;;;3.37;1.10;;;;;;;;;;5099012;28;20220;-67
2023/03/29 12:46:52;;;;;;;2.17;1.40;;;;;;;;;;5098782;28;20205;-67
2023/03/29 12:49:24;;;;;;;4.63;1.80;;;;;;;;;;5098076;28;20224;-67
2023/03/29 12:51:54;;;;;;;4.37;1.40;;;;;;;;;;5099052;28;20205;-66
2023/03/29 12:54:24;;;;;;;4.57;1.63;;;;;;;;;;5099092;28;20233;-66
2023/03/29 12:56:56;;;;;;;1.40;1.23;;;;;;;;;;5098641;28;20259;-66
2023/03/29 12:59:26;;;;;;;2.30;1.30;;;;;;;;;;5098499;28;20233;-66
2023/03/29 13:02:00;;;;;;;5.33;1.77;;;;;;;;;;5098540;28;20217;-66
2023/03/29 13:04:37;;;;;;;5.03;1.77;;;;;;;;;;5098571;28;20591;-66
2023/03/29 13:07:12;;;;;;;7.03;1.47;;;;;;;;;;5098317;28;20236;-67
2023/03/29 13:09:48;;;;;;;1.73;1.30;;;;;;;;;;5098190;28;20262;-66
2023/03/29 13:12:21;;;;;;;3.77;1.10;;;;;;;;;;5098764;28;20262;-67
2023/03/29 13:14:50;;;;;;;3.23;1.20;;;;;;;;;;5098504;28;20209;-67
2023/03/29 13:17:25;;;;;;;4.50;1.23;;;;;;;;;;5094074;28;20236;-66
2023/03/29 13:20:02;;;;;;;3.67;1.37;;;;;;;;;;5098132;28;20756;-66
2023/03/29 13:22:43;;;;;;;3.67;1.60;;;;;;;;;;5098102;28;20284;-66
2023/03/29 13:25:18;;;;;;;3.67;1.03;;;;;;;;;;5089006;28;20215;-66
2023/03/29 13:27:51;;;;;;;3.27;1.30;;;;;;;;;;5098149;28;20617;-66
2023/03/29 13:30:23;;;;;;;3.47;1.00;;;;;;;;;;5098359;28;20228;-67
2023/03/29 13:32:56;;;;;;;2.00;1.00;;;;;;;;;;5098282;28;20202;-67
2023/03/29 13:35:31;;;;;;;2.03;1.03;;;;;;;;;;5098224;28;20213;-67
2023/03/29 13:38:05;;;;;;;2.33;1.43;;;;;;;;;;5097745;28;20297;-67
2023/03/29 13:40:42;;;;;;;2.57;1.20;;;;;;;;;;5097854;28;20261;-67
2023/03/29 13:43:11;;;;;;;9.00;1.27;;;;;;;;;;5098133;28;20209;-67
2023/03/29 13:45:39;;;;;;;3.73;1.17;;;;;;;;;;5098040;28;20209;-67
2023/03/29 13:48:21;;;;;;;2.37;1.33;;;;;;;;;;5097893;28;20202;-67
2023/03/29 13:50:54;;;;;;;4.53;1.03;;;;;;;;;;5097734;28;20251;-67
2023/03/29 13:53:27;;;;;;;3.30;1.10;;;;;;;;;;5097763;28;20202;-67
2023/03/29 13:55:57;;;;;;;2.93;1.20;;;;;;;;;;5097713;28;20744;-67
2023/03/29 13:58:30;;;;;;;4.37;1.20;;;;;;;;;;5097617;28;20209;-67
2023/03/29 14:01:01;;;;;;;3.07;1.57;;;;;;;;;;5097637;28;20235;-67
2023/03/29 14:03:32;;;;;;;9.50;1.00;;;;;;;;;;5097622;28;20296;-66
2023/03/29 14:06:01;;;;;;;3.40;1.07;;;;;;;;;;5097553;28;20656;-66
2023/03/29 14:08:31;;;;;;;2.10;1.23;;;;;;;;;;5097177;28;20325;-67
2023/03/29 14:11:05;;;;;;;4.40;1.00;;;;;;;;;;5097612;28;20259;-66
2023/03/29 14:13:34;;;;;;;1.53;0.97;;;;;;;;;;5097506;28;20912;-66
2023/03/29 14:16:03;;;;;;;3.03;1.10;;;;;;;;;;5097503;28;20331;-66
2023/03/29 14:18:33;;;;;;;3.20;1.33;;;;;;;;;;5097712;28;20205;-67
2023/03/29 14:21:01;;;;;;;3.70;1.20;;;;;;;;;;5097495;28;20239;-66
2023/03/29 14:23:32;;;;;;;2.43;1.10;;;;;;;;;;5097005;28;20198;-66
2023/03/29 14:26:07;;;;;;;3.60;2.00;;;;;;;;;;5097333;28;20297;-66
2023/03/29 14:28:36;;;;;;;2.13;1.23;;;;;;;;;;5097384;28;20228;-66
2023/03/29 14:31:06;;;;;;;3.23;1.20;;;;;;;;;;5097186;28;20218;-66
2023/03/29 14:33:36;;;;;;;3.20;1.23;;;;;;;;;;5097492;28;20205;-66
2023/03/29 14:36:05;;;;;;;3.47;1.17;;;;;;;;;;5097307;28;20636;-66
2023/03/29 14:38:36;;;;;;;4.00;1.60;;;;;;;;;;5097315;28;20240;-66
2023/03/29 14:41:04;;;;;;;3.80;1.27;;;;;;;;;;5097280;28;20225;-66
2023/03/29 14:43:32;;;;;;;5.87;1.57;;;;;;;;;;5097523;28;20205;-66
2023/03/29 14:46:02;;;;;;;3.00;1.50;;;;;;;;;;5096994;28;20255;-66
2023/03/29 14:48:32;;;;;;;3.87;1.50;;;;;;;;;;5088057;28;20202;-66
2023/03/29 14:51:00;;;;;;;5.30;1.47;;;;;;;;;;5097197;28;20312;-66
2023/03/29 14:53:31;;;;;;;5.40;1.47;;;;;;;;;;5097133;28;20212;-66
2023/03/29 14:56:00;;;;;;;3.80;2.13;;;;;;;;;;5096940;28;20620;-66
2023/03/29 14:58:31;;;;;;;4.23;1.50;;;;;;;;;;5096566;28;20202;-66
2023/03/29 15:01:03;;;;;;;5.30;1.43;;;;;;;;;;5089422;28;20267;-67